CYYCCYLL

Guest
Details From CYYC - Calgary Intl
To CYLL - Lloydminster
Flight Number -
Tags Generated
Created
Modified
Stats Distance 196 nm / 364 km
Max Altitude 0 ft / 0 m
Waypoints 2
Social Downloads 1
Likes 0
Share VATSIM

Download

Looking for another format? Having issues loading an existing format? Contact us
Advertisement - Login to hide

Notes

Generated

Route

CYYC CYLL

ID Type Via Altitude Latitude Longitude Leg Dist Tot Dist Heading (true) Name
O CYYC APT - 0 ft / 0 m 51.10417˚ -114.03028˚ - 0 nm - -
O CYLL APT - 0 ft / 0 m 53.31134˚ -110.09109˚ 196 nm 196 nm 46° / 49° -

Altitude Profile

Advertisement - Login to hide

Weather


0- 5 10 15 20 25 30 35+ Temperature / ° C

Clouds and Precipitation
Forecast for 2018-05-24 00:00 UTC. Updated 5 hours ago

Ground ~20,000 ft ~40,000 ft Winds

CYYC

Details ICAO CYYC (YYC)
Name CALGARY INTL
Region Canada
Timezone America/Edmonton (UTC-6.0)
Stats Elevation 3,557 ft / 1,084 m (AMSL)
Location 51.113197° -114.020044°
Runways 3
Magnetic Variation 14.026° E

METAR

CYYC 240400Z 16006KT 20SM FEW120 19/03 A2979 RMK AC2 SLP079 DENSITY ALT 5100FT

Decode

TAF

TAF CYYC 240242Z 2403/2424 15010KT P6SM FEW090 BECMG 2414/2416 27005KT FM241700 32012KT P6SM SCT100 FM242100 32010G20KT P6SM SCT090 TEMPO 2421/2424 VRB25G35KT P6SM VCTS BKN090CB RMK NXT FCST BY 240600Z

Decode

Departure Runways

ID Width Length Bearing (true) Bearing (mag) Surface Threshold Offset Overrun Length
07 144 ft / 44 m 6,561 ft / 2,000 m 90.76° 76.73° Asphalt 0 ft / 0 m 0 ft / 0 m
10 210 ft / 64 m 8,433 ft / 2,570 m 119.00° 104.97° Asphalt 0 ft / 0 m 0 ft / 0 m
16 200 ft / 61 m 12,703 ft / 3,872 m 179.00° 164.97° Asphalt 0 ft / 0 m 0 ft / 0 m
25 144 ft / 44 m 6,561 ft / 2,000 m 270.78° 256.75° Asphalt 0 ft / 0 m 0 ft / 0 m
28 210 ft / 64 m 8,433 ft / 2,570 m 299.02° 284.99° Asphalt 0 ft / 0 m 121 ft / 37 m
34 200 ft / 61 m 12,703 ft / 3,872 m 359.00° 344.97° Asphalt 0 ft / 0 m 0 ft / 0 m

CYLL

Details ICAO CYLL (YLL)
Name LLOYDMINSTER
Region Canada
Timezone America/Edmonton (UTC-6.0)
Stats Elevation 2,193 ft / 668 m (AMSL)
Location 53.309711° -110.080202°
Runways 2
Magnetic Variation 12.502° E

METAR

CYLL 240400Z 07003KT 15SM FEW062TCU FEW120 SCT250 19/04 A2979 RMK TCU1AC1CI1 TCU DIST SE LAST STFD OBS/NEXT 241300 UTC SLP088 DENSITY ALT 3300FT

Decode

TAF

TAF AMD TAF AMD CYLL 240127Z 2401/2412 14010G20KT P6SM SCT080CB TEMPO 2401/2404 VRB20G30KT P6SM -TSRA BKN080CB FM240800 12006KT P6SM VCSH BKN090 RMK NXT FCST BY 240600Z

Decode

Destination Runways

ID Width Length Bearing (true) Bearing (mag) Surface Threshold Offset Overrun Length
08 150 ft / 46 m 5,451 ft / 1,661 m 89.99° 77.49° Asphalt 0 ft / 0 m 0 ft / 0 m
11 100 ft / 30 m 1,496 ft / 456 m 122.06° 109.56° Grass 0 ft / 0 m 0 ft / 0 m
26 150 ft / 46 m 5,451 ft / 1,661 m 270.01° 257.51° Asphalt 0 ft / 0 m 0 ft / 0 m
29 100 ft / 30 m 1,496 ft / 456 m 302.07° 289.57° Grass 0 ft / 0 m 0 ft / 0 m

Popular Alternatives